Terminal Aerodrome Forecast
Issued by NWS

Home | Current Version | Previous Version | Text Only | Print | Product List | Glossary On
Versions: 1 2 3 4 5 6 7 8 9 10 11 12 13 14 15 16 17 18 19 20 21 22 23 24 25 26 27 28 29 30 31 32 33 34
000
FTPA31 PHFO 221700
TAFLNY
TAF
PHNY 221736Z 2218/2318 02007KT P6SM SCT025
     FM222100 01012G20KT P6SM SCT020 BKN035
     FM230500 02011KT P6SM SCT015 BKN035
     FM231500 02015G22KT P6SM VCSH SCT015 BKN035
      AMD NOT SKED=

USA.gov is the U.S. government's official web portal to all federal, state and local government web resources and services.